Time;durP1;ratioP1;P1;durP2;ratioP2;P2;SDS_P1;SDS_P2;PMS_P1;PMS_P2;Temp;Humidity;BMP_temperature;BMP_pressure;BME280_temperature;BME280_humidity;BME280_pressure;Samples;Min_cycle;Max_cycle;Signal;HPM_P1;HPM_P2
2023/10/31 00:01:32;;;;;;;11.80;6.07;;;;;;;;;;5057132;27;92916;-52
2023/10/31 00:04:01;;;;;;;10.90;5.90;;;;;;;;;;5056012;27;93845;-52
2023/10/31 00:06:29;;;;;;;9.93;5.50;;;;;;;;;;5054234;27;92160;-52
2023/10/31 00:08:58;;;;;;;13.47;6.63;;;;;;;;;;5055749;27;92105;-52
2023/10/31 00:11:26;;;;;;;10.67;5.30;;;;;;;;;;5057564;27;95018;-52
2023/10/31 00:13:54;;;;;;;10.10;5.57;;;;;;;;;;5057510;27;94905;-52
2023/10/31 00:16:24;;;;;;;9.37;5.70;;;;;;;;;;5058760;27;92051;-52
2023/10/31 00:18:53;;;;;;;9.23;5.70;;;;;;;;;;5058272;27;92177;-52
2023/10/31 00:21:21;;;;;;;11.60;5.83;;;;;;;;;;5051838;27;93962;-52
2023/10/31 00:23:49;;;;;;;10.20;5.67;;;;;;;;;;5057634;27;92636;-52
2023/10/31 00:26:18;;;;;;;10.97;5.83;;;;;;;;;;5055483;27;91958;-52
2023/10/31 00:28:46;;;;;;;7.97;4.43;;;;;;;;;;5057945;27;91341;-52
2023/10/31 00:31:15;;;;;;;7.87;5.40;;;;;;;;;;5057631;27;94080;-51
2023/10/31 00:33:44;;;;;;;11.23;6.00;;;;;;;;;;5050804;27;94791;-52
2023/10/31 00:36:13;;;;;;;6.37;4.30;;;;;;;;;;5054805;27;93515;-52
2023/10/31 00:38:41;;;;;;;10.97;4.43;;;;;;;;;;5053802;27;92162;-52
2023/10/31 00:41:10;;;;;;;7.17;4.77;;;;;;;;;;5053761;27;94171;-52
2023/10/31 00:43:38;;;;;;;7.40;5.20;;;;;;;;;;5054854;27;93935;-51
2023/10/31 00:46:07;;;;;;;9.17;5.47;;;;;;;;;;5055384;27;91879;-52
2023/10/31 00:48:37;;;;;;;9.47;5.60;;;;;;;;;;5054749;27;92184;-52
2023/10/31 00:51:07;;;;;;;7.90;4.70;;;;;;;;;;5053583;27;94215;-51
2023/10/31 00:53:35;;;;;;;7.13;4.67;;;;;;;;;;5057427;27;93992;-52
2023/10/31 00:56:04;;;;;;;7.63;5.17;;;;;;;;;;5057216;27;92341;-52
2023/10/31 00:58:33;;;;;;;6.77;4.80;;;;;;;;;;5057224;27;92251;-51
2023/10/31 01:01:01;;;;;;;9.43;5.60;;;;;;;;;;5056230;27;95044;-52
2023/10/31 01:03:30;;;;;;;9.73;5.43;;;;;;;;;;5054889;27;93659;-52
2023/10/31 01:05:58;;;;;;;10.97;6.30;;;;;;;;;;5055030;27;92078;-52
2023/10/31 01:08:29;;;;;;;9.60;5.83;;;;;;;;;;5056979;27;92130;-52
2023/10/31 01:10:58;;;;;;;8.70;5.70;;;;;;;;;;5050580;27;95647;-52
2023/10/31 01:13:26;;;;;;;12.80;6.57;;;;;;;;;;5056893;27;93879;-51
2023/10/31 01:15:54;;;;;;;12.03;5.57;;;;;;;;;;5056359;27;91997;-51
2023/10/31 01:18:23;;;;;;;9.70;5.53;;;;;;;;;;5057310;27;91353;-52
2023/10/31 01:20:52;;;;;;;8.40;5.57;;;;;;;;;;5049973;27;94159;-52
2023/10/31 01:23:20;;;;;;;7.40;5.23;;;;;;;;;;5054437;27;93907;-52
2023/10/31 01:25:50;;;;;;;8.23;4.43;;;;;;;;;;5056286;27;94407;-52
2023/10/31 01:28:19;;;;;;;7.50;4.47;;;;;;;;;;5054357;27;92012;-51
2023/10/31 01:30:47;;;;;;;7.43;3.93;;;;;;;;;;5052992;27;94182;-54
2023/10/31 01:33:16;;;;;;;7.87;5.17;;;;;;;;;;5056823;27;93808;-52
2023/10/31 01:35:45;;;;;;;8.80;4.93;;;;;;;;;;5054741;27;92055;-51
2023/10/31 01:38:13;;;;;;;9.30;5.27;;;;;;;;;;5054666;27;92175;-52
2023/10/31 01:40:42;;;;;;;13.37;5.30;;;;;;;;;;5053802;27;94226;-51
2023/10/31 01:43:12;;;;;;;8.83;4.50;;;;;;;;;;5056716;27;93824;-52
2023/10/31 01:45:40;;;;;;;8.13;5.20;;;;;;;;;;5052313;27;92137;-52
2023/10/31 01:48:08;;;;;;;10.03;5.13;;;;;;;;;;5059412;27;92115;-52
2023/10/31 01:50:37;;;;;;;10.13;5.17;;;;;;;;;;5058049;27;94974;-52
2023/10/31 01:53:05;;;;;;;8.37;4.87;;;;;;;;;;5060109;27;94575;-52
2023/10/31 01:55:33;;;;;;;8.70;4.43;;;;;;;;;;5056348;27;91907;-52
2023/10/31 01:58:02;;;;;;;10.37;4.53;;;;;;;;;;5060041;27;91990;-53
2023/10/31 02:00:32;;;;;;;8.27;4.60;;;;;;;;;;5059160;27;94208;-52
2023/10/31 02:03:00;;;;;;;9.63;4.57;;;;;;;;;;5057532;27;93858;-52
2023/10/31 02:05:28;;;;;;;8.03;4.50;;;;;;;;;;5057207;27;92131;-52
2023/10/31 02:07:57;;;;;;;6.87;4.97;;;;;;;;;;5059855;27;91489;-53
2023/10/31 02:10:25;;;;;;;5.67;3.87;;;;;;;;;;5059357;27;94110;-52
2023/10/31 02:12:53;;;;;;;6.30;4.47;;;;;;;;;;5060033;27;93904;-52
2023/10/31 02:15:22;;;;;;;6.43;4.33;;;;;;;;;;5059963;27;93045;-52
2023/10/31 02:17:51;;;;;;;5.73;3.67;;;;;;;;;;5060054;27;92056;-52
2023/10/31 02:20:20;;;;;;;7.13;4.43;;;;;;;;;;5059658;27;94189;-52
2023/10/31 02:22:50;;;;;;;7.63;4.37;;;;;;;;;;5059259;27;93464;-52
2023/10/31 02:25:18;;;;;;;8.53;3.17;;;;;;;;;;5060378;27;91916;-51
2023/10/31 02:27:47;;;;;;;8.30;4.27;;;;;;;;;;5059967;27;92072;-52
2023/10/31 02:30:15;;;;;;;5.33;3.77;;;;;;;;;;5059583;27;93027;-52
2023/10/31 02:32:43;;;;;;;9.63;4.43;;;;;;;;;;5059858;27;93795;-52
2023/10/31 02:35:12;;;;;;;5.93;4.23;;;;;;;;;;5059063;27;92066;-52
2023/10/31 02:37:40;;;;;;;7.60;3.40;;;;;;;;;;5057001;27;91941;-52
2023/10/31 02:40:11;;;;;;;10.73;4.33;;;;;;;;;;5059029;27;95062;-52
2023/10/31 02:42:39;;;;;;;4.87;3.03;;;;;;;;;;5052366;27;94879;-52
2023/10/31 02:45:08;;;;;;;4.50;3.70;;;;;;;;;;5058818;27;92237;-52
2023/10/31 02:47:37;;;;;;;4.57;2.70;;;;;;;;;;5058100;27;92620;-52
2023/10/31 02:50:06;;;;;;;3.67;2.83;;;;;;;;;;5058111;27;93154;-52
2023/10/31 02:52:34;;;;;;;5.20;3.00;;;;;;;;;;5057758;27;94225;-52
2023/10/31 02:55:03;;;;;;;5.63;3.13;;;;;;;;;;5058457;27;92544;-52
2023/10/31 02:57:32;;;;;;;5.63;3.30;;;;;;;;;;5058221;27;91318;-52
2023/10/31 03:00:01;;;;;;;7.10;3.60;;;;;;;;;;5055939;27;94290;-52
2023/10/31 03:02:30;;;;;;;5.37;3.20;;;;;;;;;;5058930;27;93868;-51
2023/10/31 03:04:58;;;;;;;4.07;3.10;;;;;;;;;;5059268;27;92893;-51
2023/10/31 03:07:27;;;;;;;5.37;3.00;;;;;;;;;;5059212;27;91933;-51
2023/10/31 03:09:55;;;;;;;7.57;3.33;;;;;;;;;;5059093;27;94146;-52
2023/10/31 03:12:24;;;;;;;6.47;3.80;;;;;;;;;;5057256;27;93791;-52
2023/10/31 03:14:54;;;;;;;7.60;3.13;;;;;;;;;;5059386;27;92070;-52
2023/10/31 03:17:25;;;;;;;4.83;3.00;;;;;;;;;;5056688;27;92093;-52
2023/10/31 03:19:53;;;;;;;5.33;3.00;;;;;;;;;;5054753;27;93695;-52
2023/10/31 03:22:22;;;;;;;5.23;3.20;;;;;;;;;;5056667;27;93924;-52
2023/10/31 03:24:50;;;;;;;7.00;3.57;;;;;;;;;;5059567;27;92130;-52
2023/10/31 03:27:19;;;;;;;5.97;3.40;;;;;;;;;;5058695;27;92141;-52
2023/10/31 03:29:47;;;;;;;6.33;2.87;;;;;;;;;;5058102;27;95018;-51
2023/10/31 03:32:17;;;;;;;4.10;3.10;;;;;;;;;;5058535;27;94709;-52
2023/10/31 03:34:45;;;;;;;5.83;4.10;;;;;;;;;;5059325;27;91866;-52
2023/10/31 03:37:14;;;;;;;4.67;3.13;;;;;;;;;;5057910;27;92249;-52
2023/10/31 03:39:42;;;;;;;7.90;5.10;;;;;;;;;;5058163;27;94141;-52
2023/10/31 03:42:10;;;;;;;7.97;4.90;;;;;;;;;;5055163;27;93813;-52
2023/10/31 03:44:39;;;;;;;7.80;4.77;;;;;;;;;;5058398;27;91887;-52
2023/10/31 03:47:07;;;;;;;8.43;5.00;;;;;;;;;;5057675;27;91300;-52
2023/10/31 03:49:39;;;;;;;6.93;4.33;;;;;;;;;;5057851;27;94171;-52
2023/10/31 03:52:07;;;;;;;7.80;4.40;;;;;;;;;;5058491;27;93868;-52
2023/10/31 03:54:36;;;;;;;10.00;5.07;;;;;;;;;;5061129;27;93284;-52
2023/10/31 03:57:04;;;;;;;7.47;5.53;;;;;;;;;;5058629;27;92054;-52
2023/10/31 03:59:32;;;;;;;6.90;5.57;;;;;;;;;;5058224;27;94015;-52
2023/10/31 04:02:01;;;;;;;10.63;6.40;;;;;;;;;;5058331;27;93789;-52
2023/10/31 04:04:29;;;;;;;11.87;6.60;;;;;;;;;;5058696;27;93918;-52
2023/10/31 04:06:59;;;;;;;12.03;6.83;;;;;;;;;;5058098;27;92156;-52
2023/10/31 04:09:27;;;;;;;13.40;7.17;;;;;;;;;;5057149;27;94183;-51
2023/10/31 04:11:56;;;;;;;11.87;6.97;;;;;;;;;;5058480;27;93780;-52
2023/10/31 04:14:24;;;;;;;11.77;7.13;;;;;;;;;;5059006;27;92089;-52
2023/10/31 04:16:55;;;;;;;13.33;5.80;;;;;;;;;;5059013;27;92043;-52
2023/10/31 04:19:24;;;;;;;16.20;7.93;;;;;;;;;;5057615;27;95104;-52
2023/10/31 04:21:53;;;;;;;11.97;7.63;;;;;;;;;;5058411;27;94771;-52
2023/10/31 04:24:23;;;;;;;15.93;7.40;;;;;;;;;;5058735;27;92001;-52
2023/10/31 04:26:51;;;;;;;13.47;7.10;;;;;;;;;;5058739;27;92111;-52
2023/10/31 04:29:19;;;;;;;15.37;8.23;;;;;;;;;;5058137;27;94121;-52
2023/10/31 04:31:48;;;;;;;14.27;8.13;;;;;;;;;;5058119;27;94039;-51
2023/10/31 04:34:16;;;;;;;11.83;6.90;;;;;;;;;;5058330;27;91804;-52
2023/10/31 04:36:44;;;;;;;18.00;8.33;;;;;;;;;;5057428;27;91357;-51
2023/10/31 04:39:13;;;;;;;13.63;7.97;;;;;;;;;;5056529;27;94239;-52
2023/10/31 04:41:42;;;;;;;10.90;7.13;;;;;;;;;;5056935;27;93885;-52
2023/10/31 04:44:11;;;;;;;13.23;7.90;;;;;;;;;;5056783;27;93118;-52
2023/10/31 04:46:39;;;;;;;12.57;7.40;;;;;;;;;;5057004;27;92001;-52
2023/10/31 04:49:08;;;;;;;16.73;7.63;;;;;;;;;;5056378;27;94106;-52
2023/10/31 04:51:36;;;;;;;12.13;7.63;;;;;;;;;;5056673;27;93934;-52
2023/10/31 04:54:04;;;;;;;12.13;7.70;;;;;;;;;;5052343;27;92111;-52
2023/10/31 04:56:33;;;;;;;13.97;7.83;;;;;;;;;;5053084;27;92157;-52
2023/10/31 04:59:03;;;;;;;15.70;7.63;;;;;;;;;;5055454;27;94274;-52
2023/10/31 05:01:31;;;;;;;9.97;6.10;;;;;;;;;;5056157;27;94176;-52
2023/10/31 05:03:59;;;;;;;15.63;8.10;;;;;;;;;;5056287;27;92153;-52
2023/10/31 05:06:40;;;;;;;13.73;7.90;;;;;;;;;;5054312;27;92116;-52
2023/10/31 05:09:10;;;;;;;14.37;7.47;;;;;;;;;;5056131;27;95130;-52
2023/10/31 05:11:39;;;;;;;14.83;6.80;;;;;;;;;;5057826;27;94700;-52
2023/10/31 05:14:10;;;;;;;9.23;6.50;;;;;;;;;;5058369;27;91945;-52
2023/10/31 05:16:41;;;;;;;15.33;6.77;;;;;;;;;;5058039;27;91986;-52
2023/10/31 05:19:10;;;;;;;13.07;6.70;;;;;;;;;;5057589;27;93974;-52
2023/10/31 05:21:38;;;;;;;8.93;6.93;;;;;;;;;;5058638;27;93847;-52
2023/10/31 05:24:07;;;;;;;12.10;6.40;;;;;;;;;;5061829;27;91920;-52
2023/10/31 05:26:35;;;;;;;10.70;6.43;;;;;;;;;;5062044;27;91320;-52
2023/10/31 05:29:03;;;;;;;18.27;8.23;;;;;;;;;;5061324;27;94043;-52
2023/10/31 05:31:33;;;;;;;10.87;7.47;;;;;;;;;;5061282;27;93870;-52
2023/10/31 05:34:03;;;;;;;11.60;7.07;;;;;;;;;;5061599;27;93004;-54
2023/10/31 05:36:31;;;;;;;13.80;6.53;;;;;;;;;;5058514;27;92818;-53
2023/10/31 05:39:00;;;;;;;13.87;6.90;;;;;;;;;;5060025;27;93800;-53
2023/10/31 05:41:28;;;;;;;13.47;6.60;;;;;;;;;;5061253;27;93828;-52
2023/10/31 05:43:57;;;;;;;10.93;6.43;;;;;;;;;;5060961;27;92427;-52
2023/10/31 05:46:26;;;;;;;10.40;7.37;;;;;;;;;;5058512;27;92367;-53
2023/10/31 05:48:56;;;;;;;9.23;6.00;;;;;;;;;;5045171;27;94117;-53
2023/10/31 05:51:25;;;;;;;12.10;7.43;;;;;;;;;;5059281;27;93837;-53
2023/10/31 05:53:53;;;;;;;12.23;6.87;;;;;;;;;;5061296;27;92090;-53
2023/10/31 05:56:22;;;;;;;13.40;6.87;;;;;;;;;;5051686;27;92298;-54
2023/10/31 05:58:50;;;;;;;10.50;6.70;;;;;;;;;;5060390;27;95058;-53
2023/10/31 06:01:19;;;;;;;14.17;5.97;;;;;;;;;;5060136;27;94814;-53
2023/10/31 06:03:47;;;;;;;12.63;6.70;;;;;;;;;;5040730;28;91892;-52
2023/10/31 06:06:17;;;;;;;12.27;7.77;;;;;;;;;;5047989;27;92123;-53
2023/10/31 06:08:45;;;;;;;13.13;6.80;;;;;;;;;;5060798;27;94134;-53
2023/10/31 06:11:14;;;;;;;11.10;6.23;;;;;;;;;;5060613;27;92690;-53
2023/10/31 06:13:42;;;;;;;10.53;6.70;;;;;;;;;;5061387;27;92010;-53
2023/10/31 06:16:11;;;;;;;10.50;6.63;;;;;;;;;;5060735;27;91566;-53
2023/10/31 06:18:40;;;;;;;13.30;7.60;;;;;;;;;;5060582;27;94106;-53
2023/10/31 06:21:09;;;;;;;13.97;8.13;;;;;;;;;;5055810;27;93810;-53
2023/10/31 06:23:39;;;;;;;12.87;6.93;;;;;;;;;;5060080;27;92974;-53
2023/10/31 06:26:08;;;;;;;11.17;6.30;;;;;;;;;;5061761;27;92150;-53
2023/10/31 06:28:37;;;;;;;9.70;6.23;;;;;;;;;;5060008;27;94112;-53
2023/10/31 06:31:12;;;;;;;11.23;5.53;;;;;;;;;;5060098;27;92731;-53
2023/10/31 06:33:41;;;;;;;14.97;7.50;;;;;;;;;;5060490;27;91932;-53
2023/10/31 06:36:10;;;;;;;9.90;5.83;;;;;;;;;;5060209;27;92024;-53
2023/10/31 06:38:39;;;;;;;9.33;7.37;;;;;;;;;;5060228;27;94156;-53
2023/10/31 06:41:08;;;;;;;10.87;6.10;;;;;;;;;;5060521;27;93847;-53
2023/10/31 06:43:36;;;;;;;12.23;7.20;;;;;;;;;;5060707;27;91856;-53
2023/10/31 06:46:05;;;;;;;10.57;4.87;;;;;;;;;;5060591;27;92070;-52
2023/10/31 06:48:34;;;;;;;8.90;5.60;;;;;;;;;;5059506;27;95431;-53
2023/10/31 06:51:02;;;;;;;12.20;6.57;;;;;;;;;;5060227;27;94749;-53
2023/10/31 06:53:30;;;;;;;8.40;5.63;;;;;;;;;;5060206;27;91956;-52
2023/10/31 06:56:00;;;;;;;11.23;5.73;;;;;;;;;;5059925;27;92093;-53
2023/10/31 06:58:29;;;;;;;10.30;6.20;;;;;;;;;;5059654;27;94107;-52
2023/10/31 07:00:58;;;;;;;9.80;5.97;;;;;;;;;;5059916;27;93825;-53
2023/10/31 07:03:26;;;;;;;9.43;5.63;;;;;;;;;;5060282;27;92057;-53
2023/10/31 07:05:56;;;;;;;10.03;5.50;;;;;;;;;;5060214;27;91303;-53
2023/10/31 07:08:24;;;;;;;10.63;5.73;;;;;;;;;;5059754;27;94031;-53
2023/10/31 07:10:53;;;;;;;10.73;5.93;;;;;;;;;;5059780;27;94107;-52
2023/10/31 07:13:22;;;;;;;8.57;5.57;;;;;;;;;;5059312;27;93047;-53
2023/10/31 07:15:51;;;;;;;8.37;4.77;;;;;;;;;;5059640;27;92053;-52
2023/10/31 07:18:19;;;;;;;8.70;5.30;;;;;;;;;;5059457;27;94138;-53
2023/10/31 07:20:47;;;;;;;8.50;4.93;;;;;;;;;;5059034;27;93430;-53
2023/10/31 07:23:16;;;;;;;8.17;4.90;;;;;;;;;;5060120;27;92041;-53
2023/10/31 07:25:45;;;;;;;7.27;4.40;;;;;;;;;;5059973;27;92163;-53
2023/10/31 07:28:13;;;;;;;7.70;4.90;;;;;;;;;;5059227;27;94127;-53
2023/10/31 07:30:43;;;;;;;11.03;4.80;;;;;;;;;;5059946;27;93968;-53
2023/10/31 07:33:11;;;;;;;8.37;4.63;;;;;;;;;;5058859;27;92148;-54
2023/10/31 07:35:40;;;;;;;8.53;4.47;;;;;;;;;;5058875;27;92114;-54
2023/10/31 07:38:08;;;;;;;7.47;4.97;;;;;;;;;;5058660;27;95128;-52
2023/10/31 07:40:37;;;;;;;10.03;4.90;;;;;;;;;;5058506;27;95256;-52
2023/10/31 07:43:05;;;;;;;7.63;3.77;;;;;;;;;;5059047;27;92088;-53
2023/10/31 07:45:33;;;;;;;9.77;4.80;;;;;;;;;;5058236;27;92069;-52
2023/10/31 07:48:03;;;;;;;5.73;3.70;;;;;;;;;;5058829;27;94071;-52
2023/10/31 07:50:32;;;;;;;8.67;5.33;;;;;;;;;;5047938;27;93773;-54
2023/10/31 07:53:00;;;;;;;7.13;4.83;;;;;;;;;;5059712;27;91872;-52
2023/10/31 07:55:29;;;;;;;6.17;3.80;;;;;;;;;;5058791;27;91393;-53
2023/10/31 07:57:57;;;;;;;6.93;3.87;;;;;;;;;;5058375;27;94170;-52
2023/10/31 08:00:26;;;;;;;6.43;4.57;;;;;;;;;;5058476;27;93822;-52
2023/10/31 08:02:54;;;;;;;7.50;3.77;;;;;;;;;;5058449;27;92824;-53
2023/10/31 08:05:26;;;;;;;4.53;2.90;;;;;;;;;;5057529;27;91995;-54
2023/10/31 08:07:55;;;;;;;5.27;3.20;;;;;;;;;;5059301;27;94415;-52
2023/10/31 08:10:23;;;;;;;5.33;2.70;;;;;;;;;;5058411;27;93817;-54
2023/10/31 08:12:52;;;;;;;5.40;2.70;;;;;;;;;;5059104;27;91987;-54
2023/10/31 08:15:20;;;;;;;4.70;3.13;;;;;;;;;;5059239;27;92348;-55
2023/10/31 08:17:48;;;;;;;4.63;2.87;;;;;;;;;;5061622;27;93084;-56
2023/10/31 08:20:17;;;;;;;6.63;3.50;;;;;;;;;;5059898;27;93728;-51
2023/10/31 08:22:47;;;;;;;5.93;3.30;;;;;;;;;;5055064;27;92345;-52
2023/10/31 08:25:15;;;;;;;5.80;3.23;;;;;;;;;;5056697;27;92732;-50
2023/10/31 08:27:44;;;;;;;4.33;3.57;;;;;;;;;;5057533;27;95033;-50
2023/10/31 08:30:12;;;;;;;3.93;3.00;;;;;;;;;;5058828;27;94755;-49
2023/10/31 08:32:41;;;;;;;3.67;2.50;;;;;;;;;;5053431;27;92164;-49
2023/10/31 08:35:10;;;;;;;5.13;2.50;;;;;;;;;;5049896;27;92079;-50
2023/10/31 08:37:38;;;;;;;5.10;2.60;;;;;;;;;;5057690;27;94261;-50
2023/10/31 08:40:09;;;;;;;6.07;2.93;;;;;;;;;;5057035;27;92699;-50
2023/10/31 08:42:37;;;;;;;3.80;2.47;;;;;;;;;;5045260;27;91983;-49
2023/10/31 08:45:06;;;;;;;3.10;2.53;;;;;;;;;;5058103;27;91309;-49
2023/10/31 08:47:35;;;;;;;8.27;2.70;;;;;;;;;;5056444;27;94038;-49
2023/10/31 08:50:03;;;;;;;4.27;2.07;;;;;;;;;;5056084;27;93899;-50
2023/10/31 08:52:31;;;;;;;3.60;2.43;;;;;;;;;;5055816;27;93209;-49
2023/10/31 08:55:00;;;;;;;4.83;2.30;;;;;;;;;;5055880;27;92182;-49
2023/10/31 08:57:29;;;;;;;4.60;2.33;;;;;;;;;;5054797;27;94109;-49
2023/10/31 08:59:58;;;;;;;3.07;2.17;;;;;;;;;;5055560;27;93993;-49
2023/10/31 09:02:26;;;;;;;2.30;1.70;;;;;;;;;;5057747;27;91965;-49
2023/10/31 09:04:55;;;;;;;2.13;1.50;;;;;;;;;;5058158;27;92226;-49
2023/10/31 09:07:23;;;;;;;2.73;2.17;;;;;;;;;;5057982;27;94130;-49
2023/10/31 09:09:51;;;;;;;2.67;2.10;;;;;;;;;;5058120;27;93831;-49
2023/10/31 09:12:20;;;;;;;2.50;1.70;;;;;;;;;;5058315;27;91905;-50
2023/10/31 09:14:49;;;;;;;4.03;1.90;;;;;;;;;;5058105;27;92091;-49
2023/10/31 09:17:18;;;;;;;3.03;2.00;;;;;;;;;;5056983;27;94955;-49
2023/10/31 09:19:46;;;;;;;2.20;1.23;;;;;;;;;;5056537;27;94812;-50
2023/10/31 09:22:16;;;;;;;5.43;1.60;;;;;;;;;;5056217;27;94668;-49
2023/10/31 09:24:44;;;;;;;2.80;1.70;;;;;;;;;;5057507;27;92087;-50
2023/10/31 09:27:14;;;;;;;2.83;1.97;;;;;;;;;;5057640;27;94198;-49
2023/10/31 09:29:42;;;;;;;3.27;1.97;;;;;;;;;;5056674;27;93854;-49
2023/10/31 09:32:12;;;;;;;1.93;1.40;;;;;;;;;;5057101;27;92034;-49
2023/10/31 09:34:40;;;;;;;2.50;1.83;;;;;;;;;;5058322;27;91283;-49
2023/10/31 09:37:09;;;;;;;4.10;2.00;;;;;;;;;;5056955;27;93004;-49
2023/10/31 09:39:37;;;;;;;2.23;1.73;;;;;;;;;;5056405;27;93854;-49
2023/10/31 09:42:07;;;;;;;3.90;1.73;;;;;;;;;;5057601;27;93023;-49
2023/10/31 09:44:35;;;;;;;1.77;1.43;;;;;;;;;;5057752;27;92026;-49
2023/10/31 09:47:04;;;;;;;2.60;1.60;;;;;;;;;;5057693;27;94168;-49
2023/10/31 09:49:34;;;;;;;1.53;1.23;;;;;;;;;;5056151;27;93881;-49
2023/10/31 09:52:03;;;;;;;1.40;1.20;;;;;;;;;;5053417;27;92153;-49
2023/10/31 09:54:31;;;;;;;1.47;1.00;;;;;;;;;;5057733;27;92105;-49
2023/10/31 09:57:00;;;;;;;1.53;1.13;;;;;;;;;;5056377;27;94344;-49
2023/10/31 09:59:28;;;;;;;1.87;1.10;;;;;;;;;;5057963;27;92617;-49
2023/10/31 10:01:57;;;;;;;2.13;1.30;;;;;;;;;;5057744;27;91927;-49
2023/10/31 10:04:25;;;;;;;2.50;1.40;;;;;;;;;;5057128;27;92227;-51
2023/10/31 10:06:55;;;;;;;2.13;1.03;;;;;;;;;;5056297;27;95180;-50
2023/10/31 10:09:24;;;;;;;1.60;1.10;;;;;;;;;;5060596;27;94710;-49
2023/10/31 10:11:52;;;;;;;1.87;1.70;;;;;;;;;;5061520;27;91938;-49
2023/10/31 10:14:24;;;;;;;1.77;1.03;;;;;;;;;;5060947;27;92056;-50
2023/10/31 10:16:52;;;;;;;1.43;1.33;;;;;;;;;;5060864;27;94375;-50
2023/10/31 10:19:21;;;;;;;2.70;1.60;;;;;;;;;;5061033;27;93837;-50
2023/10/31 10:21:50;;;;;;;1.70;1.33;;;;;;;;;;5059566;27;93400;-50
2023/10/31 10:24:20;;;;;;;2.23;1.30;;;;;;;;;;5060559;27;91313;-50
2023/10/31 10:26:48;;;;;;;1.20;1.10;;;;;;;;;;5056920;27;94111;-52
2023/10/31 10:29:17;;;;;;;1.70;1.40;;;;;;;;;;5057023;27;93969;-50
2023/10/31 10:31:45;;;;;;;3.90;1.20;;;;;;;;;;5055162;27;93037;-49
2023/10/31 10:34:15;;;;;;;1.80;1.40;;;;;;;;;;5060270;27;92205;-50
2023/10/31 10:36:45;;;;;;;4.23;1.63;;;;;;;;;;5046845;27;94264;-52
2023/10/31 10:39:14;;;;;;;1.43;1.07;;;;;;;;;;5054866;27;93807;-51
2023/10/31 10:41:43;;;;;;;1.03;0.93;;;;;;;;;;5051879;27;92106;-50
2023/10/31 10:44:13;;;;;;;2.90;1.37;;;;;;;;;;5047387;27;92299;-50
2023/10/31 10:46:43;;;;;;;3.90;1.20;;;;;;;;;;5059749;27;93982;-50
2023/10/31 10:49:11;;;;;;;1.30;1.10;;;;;;;;;;5060253;27;93888;-50
2023/10/31 10:51:43;;;;;;;1.50;1.00;;;;;;;;;;5060060;27;92025;-50
2023/10/31 10:54:14;;;;;;;1.60;1.37;;;;;;;;;;5060016;27;91957;-50
2023/10/31 10:56:44;;;;;;;1.53;1.30;;;;;;;;;;5053916;27;95020;-50
2023/10/31 10:59:14;;;;;;;1.60;1.43;;;;;;;;;;5059518;27;94820;-50
2023/10/31 11:01:42;;;;;;;1.90;1.50;;;;;;;;;;5059713;27;91998;-50
2023/10/31 11:04:11;;;;;;;1.37;1.13;;;;;;;;;;5059844;27;92205;-50
2023/10/31 11:06:40;;;;;;;2.47;1.80;;;;;;;;;;5059425;27;94077;-50
2023/10/31 11:09:08;;;;;;;2.07;1.50;;;;;;;;;;5059613;27;93795;-50
2023/10/31 11:11:36;;;;;;;1.50;1.10;;;;;;;;;;5060059;27;92116;-50
2023/10/31 11:14:06;;;;;;;1.73;1.43;;;;;;;;;;5058660;27;91373;-50
2023/10/31 11:16:38;;;;;;;2.27;1.63;;;;;;;;;;5059471;27;94055;-50
2023/10/31 11:19:06;;;;;;;3.00;1.73;;;;;;;;;;5057893;27;93806;-50
2023/10/31 11:21:35;;;;;;;2.43;1.90;;;;;;;;;;5059639;27;92861;-50
2023/10/31 11:24:04;;;;;;;2.97;1.50;;;;;;;;;;5059585;27;92058;-50
2023/10/31 11:26:33;;;;;;;1.33;1.00;;;;;;;;;;5058987;27;92950;-50
2023/10/31 11:29:05;;;;;;;2.37;1.60;;;;;;;;;;5059043;27;93796;-50
2023/10/31 11:31:35;;;;;;;2.53;1.80;;;;;;;;;;5050329;27;92069;-51
2023/10/31 11:34:03;;;;;;;2.20;1.67;;;;;;;;;;5059210;27;92049;-51
2023/10/31 11:36:34;;;;;;;2.00;0.93;;;;;;;;;;5058651;27;94073;-50
2023/10/31 11:39:13;;;;;;;4.13;1.50;;;;;;;;;;5053202;27;94761;-50
2023/10/31 11:41:41;;;;;;;2.40;1.20;;;;;;;;;;5059505;27;91876;-51
2023/10/31 11:44:09;;;;;;;1.87;1.33;;;;;;;;;;5059244;27;92066;-51
2023/10/31 11:46:39;;;;;;;3.77;1.50;;;;;;;;;;5058698;27;95149;-51
2023/10/31 11:49:08;;;;;;;1.73;1.23;;;;;;;;;;5057413;27;94879;-51
2023/10/31 11:51:36;;;;;;;2.83;1.00;;;;;;;;;;5059366;27;92476;-51
2023/10/31 11:54:07;;;;;;;2.23;1.67;;;;;;;;;;5058772;27;92005;-50
2023/10/31 11:56:35;;;;;;;1.87;1.27;;;;;;;;;;5058977;27;94183;-53
2023/10/31 11:59:06;;;;;;;4.93;1.90;;;;;;;;;;5059169;27;93759;-53
2023/10/31 12:01:35;;;;;;;1.50;1.20;;;;;;;;;;5045326;27;92096;-53
2023/10/31 12:04:05;;;;;;;1.63;1.53;;;;;;;;;;5040810;27;91300;-53
2023/10/31 12:06:36;;;;;;;2.17;1.70;;;;;;;;;;5056486;27;94034;-53
2023/10/31 12:09:04;;;;;;;1.50;1.17;;;;;;;;;;5058914;27;93882;-51
2023/10/31 12:11:33;;;;;;;2.67;1.63;;;;;;;;;;5058336;27;92659;-50
2023/10/31 12:14:03;;;;;;;2.27;1.60;;;;;;;;;;5058935;27;92189;-51
2023/10/31 12:16:32;;;;;;;2.17;1.53;;;;;;;;;;5058560;27;94265;-51
2023/10/31 12:19:00;;;;;;;1.93;1.47;;;;;;;;;;5057942;27;93800;-51
2023/10/31 12:21:41;;;;;;;3.23;1.70;;;;;;;;;;5053855;27;92156;-51
2023/10/31 12:24:10;;;;;;;1.60;1.40;;;;;;;;;;5057934;27;92021;-51
2023/10/31 12:26:39;;;;;;;2.03;1.67;;;;;;;;;;5047342;27;96649;-51
2023/10/31 12:29:13;;;;;;;2.07;1.53;;;;;;;;;;5053785;27;92704;-51
2023/10/31 12:31:45;;;;;;;2.33;1.53;;;;;;;;;;5058014;27;91929;-51
2023/10/31 12:34:14;;;;;;;1.33;1.00;;;;;;;;;;5058601;27;91948;-51
2023/10/31 12:36:45;;;;;;;2.90;1.87;;;;;;;;;;5057888;27;95118;-51
2023/10/31 12:39:13;;;;;;;1.43;1.00;;;;;;;;;;5057884;27;94702;-51
2023/10/31 12:41:42;;;;;;;1.70;1.37;;;;;;;;;;5059086;27;91752;-51
2023/10/31 12:44:10;;;;;;;2.03;1.47;;;;;;;;;;5058454;27;92134;-51
2023/10/31 12:46:40;;;;;;;3.47;1.90;;;;;;;;;;5052497;27;94192;-51
2023/10/31 12:49:13;;;;;;;2.03;1.70;;;;;;;;;;5057783;27;93724;-51
2023/10/31 12:54:37;;;;;;;3.50;2.03;;;;;;;;;;5082516;27;87380;-52
2023/10/31 12:57:06;;;;;;;1.70;1.60;;;;;;;;;;5079056;27;87438;-52
2023/10/31 12:59:36;;;;;;;3.27;2.03;;;;;;;;;;5079990;27;87651;-51
2023/10/31 13:02:05;;;;;;;3.17;2.27;;;;;;;;;;5079275;27;88486;-51
2023/10/31 13:04:34;;;;;;;2.43;1.80;;;;;;;;;;5078683;27;87766;-51
2023/10/31 13:07:03;;;;;;;2.43;1.90;;;;;;;;;;5076717;27;87639;-51
2023/10/31 13:09:32;;;;;;;2.03;1.83;;;;;;;;;;5077691;27;87721;-51
2023/10/31 13:12:03;;;;;;;1.60;1.50;;;;;;;;;;5078924;27;89582;-51
2023/10/31 13:14:31;;;;;;;2.43;1.90;;;;;;;;;;5077337;27;88930;-51
2023/10/31 13:17:00;;;;;;;2.77;1.87;;;;;;;;;;5068817;27;87681;-51
2023/10/31 13:19:28;;;;;;;2.20;1.87;;;;;;;;;;5074118;27;87607;-51
2023/10/31 13:21:57;;;;;;;1.60;1.50;;;;;;;;;;5075232;27;88593;-51
2023/10/31 13:24:25;;;;;;;3.53;2.07;;;;;;;;;;5074109;27;87936;-51
2023/10/31 13:26:54;;;;;;;2.77;1.60;;;;;;;;;;5077692;27;87384;-51
2023/10/31 13:29:25;;;;;;;4.43;1.80;;;;;;;;;;5076708;27;87664;-51
2023/10/31 13:31:54;;;;;;;3.30;2.13;;;;;;;;;;5079031;27;88325;-51
2023/10/31 13:34:22;;;;;;;4.23;2.37;;;;;;;;;;5079105;27;87972;-51
2023/10/31 13:36:52;;;;;;;3.00;2.13;;;;;;;;;;5079634;27;87352;-51
2023/10/31 13:39:23;;;;;;;3.03;2.23;;;;;;;;;;5079451;27;87553;-51
2023/10/31 13:41:52;;;;;;;2.10;1.90;;;;;;;;;;5078801;27;88398;-51
2023/10/31 13:44:20;;;;;;;3.87;2.23;;;;;;;;;;5078602;27;88177;-51
2023/10/31 13:46:50;;;;;;;2.50;1.67;;;;;;;;;;5079239;27;87484;-51
2023/10/31 13:49:19;;;;;;;1.93;1.80;;;;;;;;;;5079411;27;87762;-51
2023/10/31 13:51:48;;;;;;;3.63;2.10;;;;;;;;;;5075013;27;88527;-50
2023/10/31 13:54:17;;;;;;;2.20;1.73;;;;;;;;;;5070850;27;88920;-52
2023/10/31 13:56:45;;;;;;;3.03;2.23;;;;;;;;;;5072291;27;87382;-50
2023/10/31 13:59:14;;;;;;;2.33;2.13;;;;;;;;;;5074277;27;87682;-51
2023/10/31 14:01:42;;;;;;;3.00;1.90;;;;;;;;;;5078473;27;89634;-51
2023/10/31 14:04:13;;;;;;;4.00;2.90;;;;;;;;;;5074832;27;89047;-51
2023/10/31 14:06:42;;;;;;;2.57;2.30;;;;;;;;;;5063925;27;87447;-51
2023/10/31 14:09:11;;;;;;;4.87;2.40;;;;;;;;;;5059141;27;87486;-52
2023/10/31 14:11:40;;;;;;;2.80;1.93;;;;;;;;;;5062166;27;89655;-51
2023/10/31 14:14:10;;;;;;;2.63;2.10;;;;;;;;;;5063638;27;89018;-51
2023/10/31 14:16:39;;;;;;;3.10;2.23;;;;;;;;;;5064305;27;87561;-51
2023/10/31 14:19:08;;;;;;;4.07;2.20;;;;;;;;;;5064423;27;87648;-51
2023/10/31 14:21:37;;;;;;;2.30;1.70;;;;;;;;;;5064193;27;89719;-51
2023/10/31 14:24:06;;;;;;;3.73;1.80;;;;;;;;;;5064245;27;89008;-51
2023/10/31 14:26:40;;;;;;;2.63;1.93;;;;;;;;;;5059191;27;87397;-52
2023/10/31 14:29:09;;;;;;;1.87;1.60;;;;;;;;;;5061089;27;87742;-51
2023/10/31 14:31:41;;;;;;;3.77;1.80;;;;;;;;;;5062562;27;90335;-51
2023/10/31 14:34:10;;;;;;;3.33;1.97;;;;;;;;;;5062548;27;89125;-50
2023/10/31 14:36:39;;;;;;;2.30;1.80;;;;;;;;;;5063025;27;87630;-52
2023/10/31 14:39:08;;;;;;;3.27;1.67;;;;;;;;;;5063709;27;87671;-52
2023/10/31 14:41:37;;;;;;;2.37;1.60;;;;;;;;;;5063030;27;88310;-51
2023/10/31 14:44:05;;;;;;;3.17;1.90;;;;;;;;;;5062394;27;88983;-51
2023/10/31 14:46:34;;;;;;;2.00;1.70;;;;;;;;;;5063233;27;87486;-52
2023/10/31 14:49:02;;;;;;;4.10;1.97;;;;;;;;;;5061622;27;87628;-51
2023/10/31 14:51:31;;;;;;;2.47;1.80;;;;;;;;;;5069632;27;88548;-51
2023/10/31 14:54:00;;;;;;;1.83;1.60;;;;;;;;;;5061493;27;87945;-52